Hesperides — EANN — position and weather

sailwx.info

Track history (hours):
 
Tides and Currents Weather Stations Pressure Air Temp Water Temp Dewpoint Dewpoint Depression Visibility Wind Speed Wind Dir Waves Ship Positions

Hesperides

Last reported at 2016-May-24 13:30 UTC. Time now 2016-May-24 19:37 UTC.
Position N 28°27' W 016°16'.

Length 122 m; draft 5.8 m.

Type: Tanker. MMSI: 224462000.

Date/timePositionNaut miles runAvg speedWind from/ knotsBaromVisibWave heightAir tempDewpointWater temp
2016-May-24 13:30N 28°27' W 016°16'  
2016-May-21 03:31N 28°25' W 016°15'2 0.1
2016-May-20 09:18N 28°27' W 016°16'3 4.1
2016-May-20 08:32N 28°29' W 016°13'0 0.0
2016-May-20 07:33N 28°29' W 016°13'0 0.0
2016-May-20 06:33N 28°29' W 016°13'0 0.0
2016-May-20 05:33N 28°29' W 016°13'0 0.0
2016-May-20 04:33N 28°29' W 016°13'0 0.0
2016-May-20 03:33N 28°29' W 016°13'0 0.0
2016-May-20 02:33N 28°29' W 016°13'0 0.0
2016-May-20 01:33N 28°29' W 016°13'0 0.0
2016-May-20 00:31N 28°29' W 016°13'0 0.0
2016-May-19 23:33N 28°29' W 016°13'2 2.1
2016-May-19 22:33N 28°27' W 016°12'2 2.4
2016-May-19 21:31N 28°25' W 016°13'5 5.2
2016-May-19 20:33N 28°28' W 016°08'7 6.2
2016-May-19 19:26N 28°23' W 016°14'6 6.4
2016-May-19 18:33N 28°27' W 016°10'0 0.2
2016-May-19 17:32N 28°27' W 016°10'5 5.2
2016-May-19 16:33N 28°27' W 016°05'9 9.5
2016-May-19 15:33N 28°22' W 015°56'8 8.1
2016-May-19 14:33N 28°20' W 015°47'8 8.3
2016-May-19 13:33N 28°24' W 015°38'10 9.6
2016-May-19 12:33N 28°18' W 015°29'10 9.6
2016-May-19 11:33N 28°12' W 015°20'7 6.5
2016-May-19 10:33N 28°08' W 015°15'7 7.4
2016-May-19 09:33N 28°02' W 015°19'3 3.2
2016-May-19 08:33N 27°58' W 015°19'1110.6
2016-May-19 07:33N 28°04' W 015°10'9 9.4
2016-May-19 06:33N 28°09' W 015°00'10 9.7
2016-May-19 05:33N 28°05' W 014°50'10 9.9
2016-May-19 04:33N 28°01' W 014°40'10 9.9
2016-May-19 03:33N 27°60' W 014°29'1410.8
2016-May-19 02:16N 28°02' W 014°13'810.6
2016-May-19 01:33N 28°06' W 014°06'11 0.5
2016-May-18 04:18N 28°12' W 013°55'7 9.2
2016-May-18 03:33N 28°09' W 014°02'10 9.6
2016-May-18 02:33N 28°04' W 014°11'9 8.9
2016-May-18 01:33N 28°01' W 014°21'10 9.6
2016-May-18 00:33N 28°02' W 014°32'9 8.9
2016-May-17 23:33N 28°02' W 014°42'9 9.2
2016-May-17 22:33N 28°02' W 014°52'9 9.1
2016-May-17 21:33N 28°02' W 015°02'8 8.5
2016-May-17 20:33N 28°01' W 015°12'8 8.3
2016-May-17 19:33N 27°58' W 015°21'1 0.0
2016-May-16 09:14N 27°59' W 015°22'3 4.7
2016-May-16 08:33N 28°00' W 015°19'8 8.3
2016-May-16 07:33N 28°08' W 015°22'7 7.0
2016-May-16 06:34N 28°14' W 015°27'8 8.2
2016-May-16 05:33N 28°16' W 015°35'8 8.1
2016-May-16 04:33N 28°19' W 015°44'8 8.0
2016-May-16 03:33N 28°22' W 015°53'8 8.0
2016-May-16 02:33N 28°24' W 016°01'9 8.7
2016-May-16 01:32N 28°28' W 016°11'3 2.9
2016-May-16 00:32N 28°29' W 016°13'1 0.1
2016-May-15 10:33N 28°29' W 016°13'10 9.5
2016-May-15 09:33N 28°30' W 016°03'1010.4
2016-May-15 08:33N 28°31' W 015°51'1010.4
2016-May-15 07:33N 28°33' W 015°39'1010.2
2016-May-15 06:33N 28°35' W 015°28'1010.0
2016-May-15 05:33N 28°37' W 015°17'1010.2
2016-May-15 04:33N 28°38' W 015°05'1010.2
2016-May-15 03:33N 28°40' W 014°54'  
Track history (hours):
 
Tides and Currents Weather Stations Pressure Air Temp Water Temp Dewpoint Dewpoint Depression Visibility Wind Speed Wind Dir Waves Ship Positions

Hesperides

Last reported at 2016-May-24 13:30 UTC. Time now 2016-May-24 19:37 UTC.
Position N 28°27' W 016°16'.

Length 122 m; draft 5.8 m.

Type: Tanker. MMSI: 224462000.

Date/timePositionNaut miles runAvg speedWind from/ knotsBaromVisibWave heightAir tempDewpointWater temp
2016-May-24 13:30N 28°27' W 016°16'  
2016-May-21 03:31N 28°25' W 016°15'2 0.1
2016-May-20 09:18N 28°27' W 016°16'3 4.1
2016-May-20 08:32N 28°29' W 016°13'0 0.0
2016-May-20 07:33N 28°29' W 016°13'0 0.0
2016-May-20 06:33N 28°29' W 016°13'0 0.0
2016-May-20 05:33N 28°29' W 016°13'0 0.0
2016-May-20 04:33N 28°29' W 016°13'0 0.0
2016-May-20 03:33N 28°29' W 016°13'0 0.0
2016-May-20 02:33N 28°29' W 016°13'0 0.0
2016-May-20 01:33N 28°29' W 016°13'0 0.0
2016-May-20 00:31N 28°29' W 016°13'0 0.0
2016-May-19 23:33N 28°29' W 016°13'2 2.1
2016-May-19 22:33N 28°27' W 016°12'2 2.4
2016-May-19 21:31N 28°25' W 016°13'5 5.2
2016-May-19 20:33N 28°28' W 016°08'7 6.2
2016-May-19 19:26N 28°23' W 016°14'6 6.4
2016-May-19 18:33N 28°27' W 016°10'0 0.2
2016-May-19 17:32N 28°27' W 016°10'5 5.2
2016-May-19 16:33N 28°27' W 016°05'9 9.5
2016-May-19 15:33N 28°22' W 015°56'8 8.1
2016-May-19 14:33N 28°20' W 015°47'8 8.3
2016-May-19 13:33N 28°24' W 015°38'10 9.6
2016-May-19 12:33N 28°18' W 015°29'10 9.6
2016-May-19 11:33N 28°12' W 015°20'7 6.5
2016-May-19 10:33N 28°08' W 015°15'7 7.4
2016-May-19 09:33N 28°02' W 015°19'3 3.2
2016-May-19 08:33N 27°58' W 015°19'1110.6
2016-May-19 07:33N 28°04' W 015°10'9 9.4
2016-May-19 06:33N 28°09' W 015°00'10 9.7
2016-May-19 05:33N 28°05' W 014°50'10 9.9
2016-May-19 04:33N 28°01' W 014°40'10 9.9
2016-May-19 03:33N 27°60' W 014°29'1410.8
2016-May-19 02:16N 28°02' W 014°13'810.6
2016-May-19 01:33N 28°06' W 014°06'11 0.5
2016-May-18 04:18N 28°12' W 013°55'7 9.2
2016-May-18 03:33N 28°09' W 014°02'10 9.6
2016-May-18 02:33N 28°04' W 014°11'9 8.9
2016-May-18 01:33N 28°01' W 014°21'10 9.6
2016-May-18 00:33N 28°02' W 014°32'9 8.9
2016-May-17 23:33N 28°02' W 014°42'9 9.2
2016-May-17 22:33N 28°02' W 014°52'9 9.1
2016-May-17 21:33N 28°02' W 015°02'8 8.5
2016-May-17 20:33N 28°01' W 015°12'8 8.3
2016-May-17 19:33N 27°58' W 015°21'1 0.0
2016-May-16 09:14N 27°59' W 015°22'3 4.7
2016-May-16 08:33N 28°00' W 015°19'8 8.3
2016-May-16 07:33N 28°08' W 015°22'7 7.0
2016-May-16 06:34N 28°14' W 015°27'8 8.2
2016-May-16 05:33N 28°16' W 015°35'8 8.1
2016-May-16 04:33N 28°19' W 015°44'8 8.0
2016-May-16 03:33N 28°22' W 015°53'8 8.0
2016-May-16 02:33N 28°24' W 016°01'9 8.7
2016-May-16 01:32N 28°28' W 016°11'3 2.9
2016-May-16 00:32N 28°29' W 016°13'1 0.1
2016-May-15 10:33N 28°29' W 016°13'10 9.5
2016-May-15 09:33N 28°30' W 016°03'1010.4
2016-May-15 08:33N 28°31' W 015°51'1010.4
2016-May-15 07:33N 28°33' W 015°39'1010.2
2016-May-15 06:33N 28°35' W 015°28'1010.0
2016-May-15 05:33N 28°37' W 015°17'1010.2
2016-May-15 04:33N 28°38' W 015°05'1010.2
2016-May-15 03:33N 28°40' W 014°54'  

Dump ship's entire track history